Time;durP1;ratioP1;P1;durP2;ratioP2;P2;SDS_P1;SDS_P2;PMS_P1;PMS_P2;Temp;Humidity;BMP_temperature;BMP_pressure;BME280_temperature;BME280_humidity;BME280_pressure;Samples;Min_cycle;Max_cycle;Signal;HPM_P1;HPM_P2
2023/05/17 00:00:44;;;;;;;23.02;13.48;;;;;;;7.29;100.00;102353.72;5054540;28;20032;-48
2023/05/17 00:03:10;;;;;;;28.55;14.45;;;;;;;7.26;100.00;102355.06;5054371;28;20036;-48
2023/05/17 00:05:35;;;;;;;23.13;14.25;;;;;;;7.24;100.00;102353.59;5054814;28;20386;-49
2023/05/17 00:08:00;;;;;;;21.92;13.70;;;;;;;7.26;100.00;102360.56;5053845;28;20074;-50
2023/05/17 00:10:26;;;;;;;25.35;13.63;;;;;;;7.28;100.00;102360.31;5054425;28;20025;-50
2023/05/17 00:12:51;;;;;;;24.20;13.68;;;;;;;7.26;100.00;102368.81;5054010;28;20083;-49
2023/05/17 00:15:16;;;;;;;24.15;14.20;;;;;;;7.26;100.00;102371.56;5054186;28;20024;-52
2023/05/17 00:17:41;;;;;;;26.58;15.20;;;;;;;7.26;100.00;102371.56;5054224;28;20025;-48
2023/05/17 00:20:07;;;;;;;27.73;15.02;;;;;;;7.25;100.00;102372.66;5054186;28;20024;-50
2023/05/17 00:22:32;;;;;;;28.25;14.88;;;;;;;7.20;100.00;102367.03;5053943;28;20381;-49
2023/05/17 00:24:58;;;;;;;23.60;14.25;;;;;;;7.22;100.00;102367.63;5053891;28;20439;-49
2023/05/17 00:27:23;;;;;;;23.88;14.50;;;;;;;7.17;100.00;102354.59;5053932;28;20031;-50
2023/05/17 00:29:49;;;;;;;24.75;13.93;;;;;;;7.18;100.00;102364.53;5053885;28;20036;-52
2023/05/17 00:32:14;;;;;;;23.35;14.52;;;;;;;7.17;100.00;102362.03;5053864;28;20079;-52
2023/05/17 00:34:40;;;;;;;22.73;13.93;;;;;;;7.15;100.00;102369.69;5053683;28;20033;-50
2023/05/17 00:37:05;;;;;;;27.02;14.90;;;;;;;7.15;100.00;102367.78;5051673;28;20028;-49
2023/05/17 00:39:30;;;;;;;25.60;14.85;;;;;;;7.08;100.00;102366.25;5053844;28;20056;-50
2023/05/17 00:41:56;;;;;;;24.50;14.07;;;;;;;7.08;100.00;102355.25;5047382;28;20486;-51
2023/05/17 00:44:21;;;;;;;27.23;15.65;;;;;;;7.08;100.00;102363.50;5033601;28;20079;-50
2023/05/17 00:46:46;;;;;;;24.55;14.38;;;;;;;7.07;100.00;102362.66;5033520;28;20030;-50
2023/05/17 00:49:11;;;;;;;25.40;15.07;;;;;;;7.06;100.00;102362.91;5033439;28;20503;-50
2023/05/17 00:51:38;;;;;;;26.95;14.88;;;;;;;7.01;100.00;102356.22;5033203;28;20135;-52
2023/05/17 00:54:04;;;;;;;22.63;13.85;;;;;;;7.03;100.00;102356.81;5033351;28;20532;-52
2023/05/17 00:56:30;;;;;;;29.80;14.60;;;;;;;7.05;100.00;102356.56;5033734;28;20025;-52
2023/05/17 00:58:56;;;;;;;26.13;14.77;;;;;;;7.07;100.00;102354.41;5033473;28;20033;-49
2023/05/17 01:01:21;;;;;;;23.38;14.50;;;;;;;7.03;100.00;102356.81;5033433;28;20031;-49
2023/05/17 01:03:47;;;;;;;24.52;15.02;;;;;;;7.05;100.00;102358.50;5033329;28;20472;-52
2023/05/17 01:06:13;;;;;;;26.10;15.60;;;;;;;7.03;100.00;102367.81;5032780;28;20060;-50
2023/05/17 01:08:38;;;;;;;26.45;15.13;;;;;;;7.00;100.00;102357.28;5033372;28;20029;-53
2023/05/17 01:11:30;;;;;;;26.13;15.10;;;;;;;7.02;100.00;102346.06;5032849;28;20029;-52
2023/05/17 01:14:36;;;;;;;28.52;15.50;;;;;;;7.02;100.00;102359.81;5033091;28;20033;-48
2023/05/17 01:17:06;;;;;;;30.45;15.00;;;;;;;6.97;100.00;102362.47;5033047;28;20025;-53
2023/05/17 01:19:44;;;;;;;25.13;14.73;;;;;;;6.96;100.00;102360.78;5052410;28;20114;-53
2023/05/17 01:22:25;;;;;;;26.05;14.95;;;;;;;6.97;100.00;102370.72;5053029;28;20035;-49
2023/05/17 01:25:11;;;;;;;27.38;14.68;;;;;;;6.93;100.00;102362.09;5052695;28;20037;-49
2023/05/17 01:27:39;;;;;;;25.02;15.02;;;;;;;6.91;100.00;102358.75;5052679;28;20465;-51
2023/05/17 01:30:08;;;;;;;26.50;14.85;;;;;;;6.86;100.00;102358.66;5052987;28;20044;-52
2023/05/17 01:32:34;;;;;;;25.60;15.80;;;;;;;6.86;100.00;102362.25;5051346;28;20063;-52
2023/05/17 01:34:59;;;;;;;29.52;15.88;;;;;;;6.85;100.00;102370.75;5052264;28;20025;-51
2023/05/17 01:37:25;;;;;;;26.80;16.10;;;;;;;6.84;100.00;102366.31;5052575;28;20498;-51
2023/05/17 01:39:50;;;;;;;27.50;15.32;;;;;;;6.86;100.00;102359.50;5052015;28;20052;-51
2023/05/17 01:42:27;;;;;;;29.92;16.00;;;;;;;6.85;100.00;102363.31;5052679;28;20028;-51
2023/05/17 01:45:06;;;;;;;28.92;15.73;;;;;;;6.80;100.00;102362.41;5052343;28;20029;-52
2023/05/17 01:47:41;;;;;;;25.90;15.73;;;;;;;6.83;100.00;102371.00;5032642;28;20138;-53
2023/05/17 01:50:08;;;;;;;26.70;16.25;;;;;;;6.81;100.00;102367.66;5032362;28;20029;-50
2023/05/17 01:52:50;;;;;;;26.60;16.02;;;;;;;6.78;100.00;102359.06;5032245;28;20366;-53
2023/05/17 01:55:44;;;;;;;26.23;15.38;;;;;;;6.80;100.00;102365.97;5032565;28;20061;-52
2023/05/17 01:58:11;;;;;;;24.80;14.93;;;;;;;6.80;100.00;102362.41;5032108;28;20043;-52
2023/05/17 02:00:39;;;;;;;24.15;14.88;;;;;;;6.79;100.00;102368.97;5032283;28;20041;-53
2023/05/17 02:03:04;;;;;;;29.80;16.52;;;;;;;6.71;100.00;102365.50;5032232;28;20112;-52
2023/05/17 02:05:30;;;;;;;29.30;16.30;;;;;;;6.72;100.00;102369.13;5032239;28;20026;-50
2023/05/17 02:07:55;;;;;;;25.80;16.10;;;;;;;6.74;100.00;102357.84;5032135;28;20026;-53
2023/05/17 02:10:21;;;;;;;30.10;16.88;;;;;;;6.73;100.00;102365.28;5032327;28;20382;-54
2023/05/17 02:12:46;;;;;;;28.98;16.98;;;;;;;6.73;100.00;102362.53;5031782;28;20049;-53
2023/05/17 02:15:12;;;;;;;26.58;16.88;;;;;;;6.77;100.00;102363.72;5031815;28;20453;-52
2023/05/17 02:17:39;;;;;;;29.45;16.13;;;;;;;6.75;100.00;102354.88;5031075;28;20190;-52
2023/05/17 02:20:06;;;;;;;27.98;16.70;;;;;;;6.74;100.00;102355.97;5032092;28;20022;-50
2023/05/17 02:22:31;;;;;;;27.13;16.10;;;;;;;6.76;100.00;102361.22;5032016;28;20417;-52
2023/05/17 02:24:57;;;;;;;27.40;17.27;;;;;;;6.76;100.00;102352.97;5031649;28;20032;-52
2023/05/17 02:27:22;;;;;;;27.48;16.08;;;;;;;6.83;100.00;102361.91;5031452;28;20022;-52
2023/05/17 02:29:47;;;;;;;29.80;17.13;;;;;;;6.92;100.00;102363.19;5031600;28;20025;-52
2023/05/17 02:32:13;;;;;;;30.92;16.70;;;;;;;6.92;100.00;102367.88;5031847;28;20029;-54
2023/05/17 02:34:38;;;;;;;28.65;15.85;;;;;;;6.91;100.00;102368.94;5031530;28;20446;-51
2023/05/17 02:37:04;;;;;;;27.02;16.35;;;;;;;6.96;100.00;102363.53;5031415;28;20419;-52
2023/05/17 02:39:31;;;;;;;28.33;16.60;;;;;;;6.95;100.00;102372.84;5031255;28;20053;-53
2023/05/17 02:41:56;;;;;;;29.23;16.95;;;;;;;7.00;100.00;102373.81;5031436;28;20052;-53
2023/05/17 02:44:22;;;;;;;25.58;16.10;;;;;;;7.03;100.00;102376.06;5031154;28;20033;-54
2023/05/17 02:46:47;;;;;;;26.50;17.23;;;;;;;7.05;100.00;102369.50;5031540;28;20029;-53
2023/05/17 02:49:12;;;;;;;28.98;17.10;;;;;;;7.04;100.00;102365.88;5031253;28;20044;-52
2023/05/17 02:51:38;;;;;;;28.52;16.98;;;;;;;7.04;100.00;102374.16;5031582;28;20428;-53
2023/05/17 02:54:03;;;;;;;26.90;17.10;;;;;;;7.05;100.00;102381.31;5031107;28;20445;-54
2023/05/17 02:56:28;;;;;;;26.80;16.52;;;;;;;7.08;100.00;102369.00;5031861;28;20091;-53
2023/05/17 02:58:56;;;;;;;33.05;18.65;;;;;;;7.11;100.00;102374.00;5031220;28;20029;-53
2023/05/17 03:01:22;;;;;;;30.48;16.77;;;;;;;7.16;100.00;102380.44;5030875;28;20022;-51
2023/05/17 03:03:47;;;;;;;28.27;17.20;;;;;;;7.18;100.00;102382.94;5031283;28;20483;-52
2023/05/17 03:06:13;;;;;;;29.55;16.95;;;;;;;7.21;100.00;102376.13;5031236;28;20021;-52
2023/05/17 03:08:39;;;;;;;28.92;17.48;;;;;;;7.24;100.00;102387.50;5030998;28;20037;-52
2023/05/17 03:11:04;;;;;;;30.42;17.10;;;;;;;7.30;100.00;102386.50;5030852;28;20033;-51
2023/05/17 03:13:30;;;;;;;26.02;17.08;;;;;;;7.34;100.00;102386.84;5031048;28;20075;-52
2023/05/17 03:15:55;;;;;;;27.77;16.38;;;;;;;7.39;100.00;102386.94;5031037;28;20385;-52
2023/05/17 03:18:20;;;;;;;28.80;16.00;;;;;;;7.48;100.00;102384.63;5031082;28;20393;-50
2023/05/17 03:20:46;;;;;;;30.08;17.20;;;;;;;7.54;100.00;102386.41;5030903;28;20029;-52
2023/05/17 03:23:11;;;;;;;27.45;15.82;;;;;;;7.59;100.00;102391.16;5030971;28;20064;-50
2023/05/17 03:25:36;;;;;;;26.38;15.88;;;;;;;7.62;100.00;102391.50;5030937;28;20557;-50
2023/05/17 03:28:02;;;;;;;30.15;16.15;;;;;;;7.67;100.00;102398.16;5029211;28;20041;-53
2023/05/17 03:30:27;;;;;;;29.17;15.30;;;;;;;7.63;100.00;102395.94;5030825;28;20061;-52
2023/05/17 03:32:53;;;;;;;27.42;16.27;;;;;;;7.63;100.00;102401.44;5030775;28;20025;-53
2023/05/17 03:35:18;;;;;;;29.60;16.35;;;;;;;7.60;100.00;102409.38;5029282;28;20049;-52
2023/05/17 03:37:43;;;;;;;27.75;16.88;;;;;;;7.58;100.00;102409.59;5030401;28;20018;-52
2023/05/17 03:40:09;;;;;;;27.70;16.75;;;;;;;7.52;100.00;102410.59;5030505;28;20072;-53
2023/05/17 03:42:35;;;;;;;27.85;16.38;;;;;;;7.52;100.00;102406.97;5029905;28;20029;-51
2023/05/17 03:45:01;;;;;;;27.80;16.45;;;;;;;7.50;100.00;102415.50;5030859;28;20056;-52
2023/05/17 03:47:26;;;;;;;25.92;16.98;;;;;;;7.45;100.00;102423.69;5030573;28;20469;-51
2023/05/17 03:49:51;;;;;;;27.65;16.05;;;;;;;7.40;100.00;102410.66;5030730;28;20029;-51
2023/05/17 03:52:16;;;;;;;29.10;17.05;;;;;;;7.41;100.00;102419.72;5030469;28;20082;-51
2023/05/17 03:54:42;;;;;;;25.30;16.23;;;;;;;7.42;100.00;102426.91;5030370;28;20389;-54
2023/05/17 03:57:07;;;;;;;27.00;15.77;;;;;;;7.41;100.00;102423.34;5030494;28;20026;-50
2023/05/17 03:59:32;;;;;;;27.30;16.50;;;;;;;7.38;100.00;102433.97;5030796;28;20029;-48
2023/05/17 04:01:57;;;;;;;26.17;15.35;;;;;;;7.39;100.00;102430.16;5030431;28;20022;-51
2023/05/17 04:04:23;;;;;;;27.83;16.58;;;;;;;7.40;100.00;102440.94;5030593;28;20022;-52
2023/05/17 04:06:48;;;;;;;31.27;15.90;;;;;;;7.39;100.00;102441.16;5030551;28;20029;-51
2023/05/17 04:09:14;;;;;;;30.33;16.10;;;;;;;7.40;100.00;102435.44;5030239;28;20029;-52
2023/05/17 04:11:40;;;;;;;27.13;15.57;;;;;;;7.40;100.00;102426.31;5030373;28;20544;-52
2023/05/17 04:14:06;;;;;;;28.33;15.70;;;;;;;7.41;100.00;102434.34;5030432;28;20040;-50
2023/05/17 04:16:31;;;;;;;29.02;15.43;;;;;;;7.42;100.00;102430.50;5030412;28;20045;-49
2023/05/17 04:18:59;;;;;;;29.10;15.73;;;;;;;7.36;100.00;102427.91;5030615;28;20036;-49
2023/05/17 04:21:24;;;;;;;27.83;16.13;;;;;;;7.30;100.00;102438.81;5030290;28;20412;-50
2023/05/17 04:23:50;;;;;;;27.92;15.65;;;;;;;7.28;100.00;102432.69;5030389;28;20024;-50
2023/05/17 04:26:15;;;;;;;30.40;16.48;;;;;;;7.27;100.00;102444.81;5030179;28;20029;-50
2023/05/17 04:28:40;;;;;;;28.02;15.63;;;;;;;7.27;100.00;102447.56;5030196;28;20091;-51
2023/05/17 04:31:07;;;;;;;29.38;16.42;;;;;;;7.22;100.00;102452.97;5030382;28;20045;-50
2023/05/17 04:33:32;;;;;;;26.83;16.40;;;;;;;7.18;100.00;102455.38;5030351;28;20108;-52
2023/05/17 04:35:58;;;;;;;28.00;16.10;;;;;;;7.15;100.00;102458.59;5045750;28;20045;-52
2023/05/17 04:38:23;;;;;;;30.40;16.80;;;;;;;7.14;100.00;102461.59;5050059;28;20045;-51
2023/05/17 04:40:48;;;;;;;27.08;16.48;;;;;;;7.11;100.00;102465.69;5051224;28;20025;-56
2023/05/17 04:43:13;;;;;;;27.65;16.48;;;;;;;7.09;100.00;102465.09;5053495;28;20029;-51
2023/05/17 04:45:39;;;;;;;27.38;16.05;;;;;;;7.11;100.00;102475.84;5053330;28;20033;-52
2023/05/17 04:48:05;;;;;;;28.30;15.38;;;;;;;7.13;100.00;102474.50;5053613;28;20539;-48
2023/05/17 04:50:30;;;;;;;26.98;16.10;;;;;;;7.17;100.00;102477.63;5053496;28;20082;-53
2023/05/17 04:52:55;;;;;;;27.95;16.60;;;;;;;7.18;100.00;102476.53;5053734;28;20396;-52
2023/05/17 04:55:21;;;;;;;28.73;16.27;;;;;;;7.22;100.00;102480.47;5053017;28;20032;-53
2023/05/17 04:57:46;;;;;;;29.17;16.92;;;;;;;7.29;100.00;102483.94;5052979;28;20147;-51
2023/05/17 05:00:14;;;;;;;30.73;17.15;;;;;;;7.31;100.00;102483.72;5053283;28;20028;-52
2023/05/17 05:02:39;;;;;;;28.45;16.08;;;;;;;7.37;100.00;102484.66;5052912;28;20061;-52
2023/05/17 05:05:05;;;;;;;28.58;16.30;;;;;;;7.44;100.00;102488.09;5052817;28;20056;-52
2023/05/17 05:07:31;;;;;;;29.15;15.52;;;;;;;7.51;100.00;102488.78;5048863;28;20045;-50
2023/05/17 05:09:56;;;;;;;28.52;15.38;;;;;;;7.57;100.00;102490.53;5042163;28;20379;-53
2023/05/17 05:12:21;;;;;;;28.77;15.98;;;;;;;7.63;100.00;102502.50;5043590;28;20028;-54
2023/05/17 05:14:47;;;;;;;32.70;16.27;;;;;;;7.67;100.00;102503.69;5040846;28;20108;-52
2023/05/17 05:17:12;;;;;;;27.77;16.17;;;;;;;7.73;100.00;102507.38;5046930;28;20079;-52
2023/05/17 05:19:37;;;;;;;27.00;15.85;;;;;;;7.81;100.00;102507.00;5053019;28;20028;-51
2023/05/17 05:22:03;;;;;;;29.88;16.40;;;;;;;7.88;100.00;102510.41;5053071;28;20033;-53
2023/05/17 05:24:28;;;;;;;29.77;16.85;;;;;;;7.94;100.00;102514.13;5052976;28;20071;-52
2023/05/17 05:26:54;;;;;;;30.60;15.93;;;;;;;8.00;100.00;102513.13;5052716;28;20029;-52
2023/05/17 05:29:19;;;;;;;29.52;16.55;;;;;;;8.03;100.00;102512.63;5052633;28;20453;-54
2023/05/17 05:31:45;;;;;;;29.92;15.82;;;;;;;8.04;100.00;102522.56;5052716;28;20063;-53
2023/05/17 05:34:10;;;;;;;30.08;15.95;;;;;;;8.12;100.00;102519.41;5052470;28;20025;-54
2023/05/17 05:36:36;;;;;;;31.05;16.33;;;;;;;8.21;100.00;102517.09;5052472;28;20033;-52
2023/05/17 05:39:01;;;;;;;29.38;16.45;;;;;;;8.29;100.00;102521.34;5052749;28;20102;-53
2023/05/17 05:41:27;;;;;;;28.45;16.30;;;;;;;8.38;100.00;102521.78;5048576;28;20422;-53
2023/05/17 05:43:52;;;;;;;27.48;16.15;;;;;;;8.43;100.00;102530.97;5043402;28;20444;-53
2023/05/17 05:46:17;;;;;;;27.45;15.98;;;;;;;8.46;100.00;102529.63;5042242;28;20045;-54
2023/05/17 05:48:43;;;;;;;26.65;16.13;;;;;;;8.52;100.00;102536.94;5040993;28;20485;-53
2023/05/17 05:51:09;;;;;;;28.42;14.60;;;;;;;8.58;100.00;102540.59;5040901;28;20032;-54
2023/05/17 05:53:35;;;;;;;26.50;15.02;;;;;;;8.66;100.00;102540.19;5046678;28;20052;-53
2023/05/17 05:56:00;;;;;;;26.45;14.57;;;;;;;8.73;100.00;102537.25;5052168;28;20063;-53
2023/05/17 05:58:25;;;;;;;25.83;14.27;;;;;;;8.78;100.00;102534.59;5052197;28;20388;-52
2023/05/17 06:00:51;;;;;;;25.20;14.15;;;;;;;8.81;100.00;102550.63;5051963;28;20116;-53
2023/05/17 06:03:16;;;;;;;24.75;14.75;;;;;;;8.85;100.00;102553.72;5052268;28;20055;-53
2023/05/17 06:05:41;;;;;;;23.38;13.40;;;;;;;8.93;100.00;102556.03;5052077;28;20064;-54
2023/05/17 06:08:07;;;;;;;26.65;15.25;;;;;;;9.02;100.00;102561.97;5052068;28;20032;-54
2023/05/17 06:10:32;;;;;;;26.38;14.38;;;;;;;9.04;100.00;102563.38;5052088;28;20480;-54
2023/05/17 06:12:57;;;;;;;23.83;13.85;;;;;;;9.11;100.00;102563.22;5051790;28;20033;-54
2023/05/17 06:15:23;;;;;;;28.70;14.65;;;;;;;9.15;100.00;102569.91;5051774;28;20024;-49
2023/05/17 06:17:48;;;;;;;28.85;14.43;;;;;;;9.20;100.00;102569.16;5051983;28;20021;-50
2023/05/17 06:20:15;;;;;;;24.63;13.15;;;;;;;9.27;100.00;102574.47;5050360;28;20063;-53
2023/05/17 06:22:41;;;;;;;23.92;13.05;;;;;;;9.32;100.00;102575.38;5051563;28;20016;-50
2023/05/17 06:25:07;;;;;;;22.95;11.57;;;;;;;9.41;100.00;102578.56;5051236;28;20025;-50
2023/05/17 06:27:32;;;;;;;25.88;12.25;;;;;;;9.48;98.61;102594.94;5051772;28;20104;-50
2023/05/17 06:29:59;;;;;;;22.95;11.93;;;;;;;9.51;95.00;102591.66;5051716;28;20025;-52
2023/05/17 06:32:24;;;;;;;24.42;12.35;;;;;;;9.51;94.99;102597.19;5051748;28;20498;-50
2023/05/17 06:34:49;;;;;;;23.08;12.18;;;;;;;9.60;95.98;102587.34;5051695;28;20025;-53
2023/05/17 06:37:14;;;;;;;21.40;11.80;;;;;;;9.63;95.09;102584.09;5051501;28;20099;-49
2023/05/17 06:39:40;;;;;;;24.08;12.15;;;;;;;9.61;91.72;102590.97;5051211;28;20091;-51
2023/05/17 06:42:05;;;;;;;24.13;11.63;;;;;;;9.71;91.13;102587.47;5050260;28;20021;-51
2023/05/17 06:44:30;;;;;;;24.13;11.63;;;;;;;9.82;89.42;102595.63;5050034;28;20029;-52
2023/05/17 06:46:56;;;;;;;22.58;11.48;;;;;;;9.96;89.11;102593.34;5050235;28;20049;-52
2023/05/17 06:49:21;;;;;;;23.70;12.13;;;;;;;10.04;85.59;102608.59;5049962;28;20025;-52
2023/05/17 06:51:47;;;;;;;25.65;12.27;;;;;;;10.09;85.83;102607.81;5050433;28;20033;-52
2023/05/17 06:54:13;;;;;;;22.23;11.98;;;;;;;10.17;85.10;102592.72;5050246;28;20163;-51
2023/05/17 06:56:38;;;;;;;21.65;11.25;;;;;;;10.30;84.15;102584.81;5051127;28;20564;-51
2023/05/17 06:59:03;;;;;;;24.42;11.05;;;;;;;10.41;83.85;102599.63;5051447;28;20431;-49
2023/05/17 07:01:29;;;;;;;23.70;11.60;;;;;;;10.52;81.58;102597.78;5051624;28;20032;-52
2023/05/17 07:03:54;;;;;;;22.13;11.02;;;;;;;10.64;81.15;102599.53;5050631;28;20021;-50
2023/05/17 07:06:20;;;;;;;25.73;11.90;;;;;;;10.70;80.30;102602.09;5051222;28;20025;-52
2023/05/17 07:08:45;;;;;;;25.60;11.50;;;;;;;10.73;80.11;102604.34;5051142;28;20413;-52
2023/05/17 07:11:10;;;;;;;24.38;11.52;;;;;;;10.84;78.17;102598.88;5051370;28;20033;-51
2023/05/17 07:13:36;;;;;;;24.75;11.00;;;;;;;10.98;77.51;102605.63;5050964;28;20028;-49
2023/05/17 07:16:01;;;;;;;23.48;11.35;;;;;;;11.04;77.16;102600.97;5050885;28;20472;-53
2023/05/17 07:18:26;;;;;;;22.70;11.15;;;;;;;11.12;76.64;102603.22;5049771;28;20496;-49
2023/05/17 07:20:52;;;;;;;21.98;11.20;;;;;;;11.23;75.25;102604.16;5051006;28;20036;-52
2023/05/17 07:23:17;;;;;;;23.60;10.25;;;;;;;11.20;74.16;102610.22;5038174;28;20112;-51
2023/05/17 07:25:42;;;;;;;22.63;11.00;;;;;;;11.08;73.80;102616.78;5031027;28;20060;-50
2023/05/17 07:28:08;;;;;;;23.77;10.25;;;;;;;11.00;74.07;102624.75;5030970;28;20492;-59
2023/05/17 07:30:33;;;;;;;22.52;10.77;;;;;;;10.81;74.83;102627.94;5030964;28;20116;-57
2023/05/17 07:32:58;;;;;;;21.77;10.20;;;;;;;10.91;76.31;102622.47;5030796;28;20029;-57
2023/05/17 07:35:24;;;;;;;20.83;10.50;;;;;;;10.98;76.26;102624.19;5030980;28;20071;-57
2023/05/17 07:37:49;;;;;;;22.33;11.07;;;;;;;11.11;74.36;102623.72;5030597;28;20495;-58
2023/05/17 07:40:15;;;;;;;22.17;10.38;;;;;;;11.27;73.81;102632.16;5030233;28;20033;-56
2023/05/17 07:42:40;;;;;;;22.48;10.95;;;;;;;11.33;74.01;102629.16;5029261;28;20515;-57
2023/05/17 07:45:06;;;;;;;23.25;10.60;;;;;;;11.35;71.71;102634.41;5028985;28;20473;-57
2023/05/17 07:47:31;;;;;;;23.75;10.50;;;;;;;11.41;73.85;102621.44;5028952;28;20030;-57
2023/05/17 07:49:57;;;;;;;22.10;11.00;;;;;;;11.37;72.26;102632.22;5028868;28;20108;-58
2023/05/17 07:52:22;;;;;;;22.52;10.70;;;;;;;11.25;72.06;102629.63;5029092;28;20061;-57
2023/05/17 07:54:47;;;;;;;22.42;10.60;;;;;;;11.21;72.27;102634.03;5026850;28;20033;-56
2023/05/17 07:57:13;;;;;;;25.92;10.75;;;;;;;10.97;73.07;102645.50;5028805;28;20461;-57
2023/05/17 07:59:38;;;;;;;19.35;9.80;;;;;;;10.92;72.22;102639.94;5028950;28;20567;-57
2023/05/17 08:02:03;;;;;;;23.02;10.45;;;;;;;10.84;71.99;102643.19;5028646;28;20036;-57
2023/05/17 08:04:29;;;;;;;21.88;10.85;;;;;;;10.72;71.64;102641.41;5029045;28;20076;-58
2023/05/17 08:06:54;;;;;;;20.65;9.85;;;;;;;10.75;72.41;102635.38;5029252;28;20211;-56
2023/05/17 08:09:20;;;;;;;22.27;9.98;;;;;;;10.89;72.07;102651.53;5028676;28;20556;-57
2023/05/17 08:11:45;;;;;;;23.45;10.90;;;;;;;10.90;71.48;102644.88;5028792;28;20039;-58
2023/05/17 08:14:12;;;;;;;20.67;9.70;;;;;;;11.03;69.12;102650.00;5028801;28;20036;-57
2023/05/17 08:16:37;;;;;;;22.42;10.40;;;;;;;11.15;69.78;102648.94;5031647;28;20017;-58
2023/05/17 08:19:03;;;;;;;19.90;10.50;;;;;;;11.22;70.05;102635.72;5032352;28;20044;-56
2023/05/17 08:21:28;;;;;;;21.60;10.90;;;;;;;11.42;70.06;102639.72;5031259;28;20441;-56
2023/05/17 08:23:54;;;;;;;23.77;10.70;;;;;;;11.78;69.33;102639.91;5032693;28;20136;-58
2023/05/17 08:26:19;;;;;;;22.67;10.00;;;;;;;11.99;66.52;102636.16;5031986;28;20060;-56
2023/05/17 08:28:44;;;;;;;19.95;10.45;;;;;;;12.16;65.06;102640.63;5031819;28;20036;-58
2023/05/17 08:31:11;;;;;;;19.13;9.80;;;;;;;12.42;65.38;102629.59;5032066;28;20481;-60
2023/05/17 08:33:36;;;;;;;22.35;10.60;;;;;;;12.43;63.37;102648.72;5032078;28;20025;-58
2023/05/17 08:36:06;;;;;;;21.38;9.75;;;;;;;12.40;63.12;102648.44;5031956;28;20036;-57
2023/05/17 08:38:33;;;;;;;24.90;9.95;;;;;;;12.26;62.97;102645.38;5031784;28;20052;-58
2023/05/17 08:40:58;;;;;;;19.42;9.63;;;;;;;12.15;63.45;102641.75;5030200;28;20459;-58
2023/05/17 08:43:24;;;;;;;22.23;9.73;;;;;;;11.96;63.13;102646.91;5031822;28;20120;-57
2023/05/17 08:45:50;;;;;;;21.00;10.18;;;;;;;11.97;63.17;102660.53;5031742;28;20043;-58
2023/05/17 08:48:16;;;;;;;20.35;10.30;;;;;;;11.96;64.49;102639.44;5044831;28;20076;-59
2023/05/17 08:50:43;;;;;;;22.25;9.95;;;;;;;12.25;62.96;102641.78;5051653;28;20155;-58
2023/05/17 08:53:09;;;;;;;20.40;10.10;;;;;;;12.36;59.05;102647.34;5051776;28;20514;-58
2023/05/17 08:55:36;;;;;;;22.10;9.45;;;;;;;12.50;58.67;102637.38;5051980;28;20108;-58
2023/05/17 08:58:03;;;;;;;19.48;9.82;;;;;;;12.77;57.39;102648.22;5049943;28;20040;-57
2023/05/17 09:00:32;;;;;;;19.27;9.07;;;;;;;12.92;56.99;102647.41;5051540;28;20544;-56
2023/05/17 09:02:59;;;;;;;22.52;10.25;;;;;;;13.05;57.87;102648.78;5049927;28;20475;-58
2023/05/17 09:05:25;;;;;;;20.25;10.23;;;;;;;13.08;57.78;102664.06;5050098;28;20062;-58
2023/05/17 09:07:51;;;;;;;22.88;9.40;;;;;;;12.85;57.65;102663.50;5051270;28;20029;-57
2023/05/17 09:10:17;;;;;;;17.02;9.18;;;;;;;12.71;58.56;102656.81;5051588;28;20033;-57
2023/05/17 09:12:43;;;;;;;23.02;9.85;;;;;;;12.62;58.14;102660.16;5051453;28;20075;-57
2023/05/17 09:15:17;;;;;;;18.50;9.13;;;;;;;12.86;58.55;102642.94;5051508;28;20095;-58
2023/05/17 09:17:49;;;;;;;18.75;9.68;;;;;;;13.10;55.65;102651.53;5049828;28;20115;-57
2023/05/17 09:20:24;;;;;;;19.40;9.50;;;;;;;13.18;55.98;102647.38;5051509;28;20033;-57
2023/05/17 09:22:50;;;;;;;19.50;9.88;;;;;;;13.46;56.25;102641.53;5051301;28;20049;-57
2023/05/17 09:25:22;;;;;;;18.75;9.50;;;;;;;13.44;56.37;102654.88;5051560;28;20025;-57
2023/05/17 09:27:51;;;;;;;19.77;9.60;;;;;;;13.08;56.02;102659.31;5050776;28;20040;-58
2023/05/17 09:30:17;;;;;;;18.67;10.13;;;;;;;13.25;56.00;102644.31;5051064;28;20028;-57
2023/05/17 09:32:45;;;;;;;16.98;9.65;;;;;;;13.48;55.74;102642.06;5051201;28;20562;-57
2023/05/17 09:35:11;;;;;;;21.50;10.13;;;;;;;13.45;55.19;102651.81;5051019;28;20035;-58
2023/05/17 09:37:40;;;;;;;18.75;9.23;;;;;;;13.40;55.52;102640.72;5051260;28;20037;-57
2023/05/17 09:40:05;;;;;;;17.67;10.00;;;;;;;13.48;57.10;102642.06;5050793;28;20499;-58
2023/05/17 09:42:36;;;;;;;19.60;9.40;;;;;;;13.55;56.12;102651.78;5051098;28;20024;-57
2023/05/17 09:45:01;;;;;;;18.00;8.80;;;;;;;13.38;57.17;102638.16;5050888;28;20566;-57
2023/05/17 09:47:29;;;;;;;21.00;9.48;;;;;;;13.36;58.14;102645.97;5050721;28;20021;-57
2023/05/17 09:50:01;;;;;;;19.42;9.45;;;;;;;13.54;58.16;102632.59;5050711;28;20081;-56
2023/05/17 09:52:34;;;;;;;18.58;9.80;;;;;;;13.65;57.58;102653.69;5050702;28;20403;-58
2023/05/17 09:54:59;;;;;;;15.98;9.40;;;;;;;13.48;57.11;102645.69;5050981;28;20096;-59
2023/05/17 09:57:27;;;;;;;20.42;9.13;;;;;;;13.64;56.34;102648.41;5050711;28;20068;-57
2023/05/17 09:59:56;;;;;;;20.75;10.00;;;;;;;13.40;55.94;102644.31;5048978;28;20048;-56
2023/05/17 10:02:26;;;;;;;20.13;9.30;;;;;;;13.33;56.31;102637.34;5050234;28;20412;-57
2023/05/17 10:04:55;;;;;;;16.90;8.93;;;;;;;13.39;54.70;102658.50;5050676;28;20033;-57
2023/05/17 10:07:24;;;;;;;20.35;9.63;;;;;;;13.39;54.87;102650.97;5050497;28;20125;-57
2023/05/17 10:09:51;;;;;;;21.02;9.65;;;;;;;13.71;53.31;102648.94;5050352;28;20037;-56
2023/05/17 10:12:20;;;;;;;19.73;10.05;;;;;;;13.89;51.19;102639.97;5050176;28;20079;-56
2023/05/17 10:14:46;;;;;;;16.83;8.70;;;;;;;14.25;51.67;102657.63;5050974;28;20063;-57
2023/05/17 10:17:13;;;;;;;19.48;9.02;;;;;;;14.11;48.87;102649.06;5050376;28;20087;-57
2023/05/17 10:19:38;;;;;;;17.60;9.00;;;;;;;13.92;49.24;102657.22;5050287;28;20044;-56
2023/05/17 10:22:05;;;;;;;18.23;8.90;;;;;;;13.85;49.92;102655.56;5050135;28;20021;-57
2023/05/17 10:24:33;;;;;;;16.90;9.40;;;;;;;13.86;49.63;102657.25;5050150;28;20482;-57
2023/05/17 10:26:59;;;;;;;16.20;9.32;;;;;;;14.13;50.72;102647.66;5050243;28;20112;-57
2023/05/17 10:29:24;;;;;;;19.50;10.27;;;;;;;14.35;50.18;102643.66;5050050;28;20021;-56
2023/05/17 10:31:50;;;;;;;18.40;8.90;;;;;;;14.39;49.67;102655.84;5049888;28;20412;-56
2023/05/17 10:34:17;;;;;;;15.68;8.60;;;;;;;14.16;47.60;102647.09;5050028;28;20039;-57
2023/05/17 10:36:43;;;;;;;18.48;9.07;;;;;;;13.88;48.10;102640.25;5050296;28;20090;-58
2023/05/17 10:39:10;;;;;;;14.88;8.48;;;;;;;13.95;48.98;102640.78;5049412;28;20049;-57
2023/05/17 10:41:37;;;;;;;15.40;8.90;;;;;;;13.82;46.40;102649.75;5048506;28;20068;-57
2023/05/17 10:44:06;;;;;;;17.50;9.13;;;;;;;13.66;47.43;102640.63;5049865;28;20037;-57
2023/05/17 10:46:32;;;;;;;18.77;9.40;;;;;;;13.96;48.76;102645.22;5049791;28;20072;-56
2023/05/17 10:48:59;;;;;;;16.48;9.23;;;;;;;14.17;48.59;102639.56;5049972;28;20024;-58
2023/05/17 10:51:30;;;;;;;16.05;8.80;;;;;;;14.34;46.94;102636.41;5049972;28;20477;-56
2023/05/17 10:54:01;;;;;;;18.95;9.10;;;;;;;14.42;47.21;102635.78;5050336;28;20465;-57
2023/05/17 10:56:27;;;;;;;17.63;9.35;;;;;;;14.19;46.12;102640.94;5049030;28;20032;-57
2023/05/17 10:59:20;;;;;;;16.67;9.00;;;;;;;14.30;47.33;102629.75;5047602;28;20099;-57
2023/05/17 11:02:03;;;;;;;18.38;9.43;;;;;;;14.47;47.46;102630.19;5049194;28;20077;-58
2023/05/17 11:04:33;;;;;;;17.85;9.07;;;;;;;14.57;47.37;102625.66;5049270;28;20040;-56
2023/05/17 11:07:17;;;;;;;19.42;9.30;;;;;;;14.50;49.79;102629.59;5049127;28;20039;-58
2023/05/17 11:09:44;;;;;;;18.40;9.18;;;;;;;14.29;48.79;102626.13;5049312;28;20033;-57